sensor_id;sensor_type;location;lat;lon;timestamp;temperature;humidity
19734;DHT22;10018;51.230;7.860;2023-06-10T00:00:57;15.70;99.90
19734;DHT22;10018;51.230;7.860;2023-06-10T00:03:23;15.70;99.90
19734;DHT22;10018;51.230;7.860;2023-06-10T00:05:49;15.70;99.90
19734;DHT22;10018;51.230;7.860;2023-06-10T00:08:14;15.60;99.90
19734;DHT22;10018;51.230;7.860;2023-06-10T00:10:41;15.60;99.90
19734;DHT22;10018;51.230;7.860;2023-06-10T00:13:09;15.60;99.90
19734;DHT22;10018;51.230;7.860;2023-06-10T00:15:34;15.60;99.90
19734;DHT22;10018;51.230;7.860;2023-06-10T00:18:04;15.50;99.90
19734;DHT22;10018;51.230;7.860;2023-06-10T00:20:30;15.60;99.90
19734;DHT22;10018;51.230;7.860;2023-06-10T00:22:57;15.50;99.90
19734;DHT22;10018;51.230;7.860;2023-06-10T00:25:24;15.50;99.90
19734;DHT22;10018;51.230;7.860;2023-06-10T00:27:51;15.40;99.90
19734;DHT22;10018;51.230;7.860;2023-06-10T00:30:17;15.40;99.90
19734;DHT22;10018;51.230;7.860;2023-06-10T00:32:42;15.30;99.90
19734;DHT22;10018;51.230;7.860;2023-06-10T00:35:08;15.30;99.90
19734;DHT22;10018;51.230;7.860;2023-06-10T00:37:34;15.20;99.90
19734;DHT22;10018;51.230;7.860;2023-06-10T00:40:03;15.20;99.90
19734;DHT22;10018;51.230;7.860;2023-06-10T00:42:29;15.20;99.90
19734;DHT22;10018;51.230;7.860;2023-06-10T00:44:55;15.10;99.90
19734;DHT22;10018;51.230;7.860;2023-06-10T00:47:21;15.10;99.90
19734;DHT22;10018;51.230;7.860;2023-06-10T00:49:49;15.10;99.90
19734;DHT22;10018;51.230;7.860;2023-06-10T00:52:16;14.90;99.90
19734;DHT22;10018;51.230;7.860;2023-06-10T00:54:45;14.90;99.90
19734;DHT22;10018;51.230;7.860;2023-06-10T00:57:12;14.90;99.90
19734;DHT22;10018;51.230;7.860;2023-06-10T00:59:40;14.90;99.90
19734;DHT22;10018;51.230;7.860;2023-06-10T01:02:06;14.80;99.90
19734;DHT22;10018;51.230;7.860;2023-06-10T01:04:32;14.80;99.90
19734;DHT22;10018;51.230;7.860;2023-06-10T01:09:45;14.70;99.90
19734;DHT22;10018;51.230;7.860;2023-06-10T01:12:39;14.80;99.90
19734;DHT22;10018;51.230;7.860;2023-06-10T01:15:07;14.70;99.90
19734;DHT22;10018;51.230;7.860;2023-06-10T01:17:34;14.70;99.90
19734;DHT22;10018;51.230;7.860;2023-06-10T01:20:01;14.70;99.90
19734;DHT22;10018;51.230;7.860;2023-06-10T01:22:37;14.60;99.90
19734;DHT22;10018;51.230;7.860;2023-06-10T01:25:05;14.60;99.90
19734;DHT22;10018;51.230;7.860;2023-06-10T01:27:37;14.60;99.90
19734;DHT22;10018;51.230;7.860;2023-06-10T01:30:10;14.60;99.90
19734;DHT22;10018;51.230;7.860;2023-06-10T01:32:48;14.50;99.90
19734;DHT22;10018;51.230;7.860;2023-06-10T01:35:15;14.50;99.90
19734;DHT22;10018;51.230;7.860;2023-06-10T01:37:45;14.50;99.90
19734;DHT22;10018;51.230;7.860;2023-06-10T01:40:12;14.50;99.90
19734;DHT22;10018;51.230;7.860;2023-06-10T01:42:38;14.50;99.90
19734;DHT22;10018;51.230;7.860;2023-06-10T01:45:04;14.40;99.90
19734;DHT22;10018;51.230;7.860;2023-06-10T01:47:30;14.40;99.90
19734;DHT22;10018;51.230;7.860;2023-06-10T01:49:56;14.30;99.90
19734;DHT22;10018;51.230;7.860;2023-06-10T01:52:22;14.40;99.90
19734;DHT22;10018;51.230;7.860;2023-06-10T01:54:48;14.30;99.90
19734;DHT22;10018;51.230;7.860;2023-06-10T01:57:13;14.20;99.90
19734;DHT22;10018;51.230;7.860;2023-06-10T01:59:39;14.20;99.90
19734;DHT22;10018;51.230;7.860;2023-06-10T02:02:05;14.20;99.90
19734;DHT22;10018;51.230;7.860;2023-06-10T02:04:31;14.10;99.90
19734;DHT22;10018;51.230;7.860;2023-06-10T02:06:59;14.10;99.90
19734;DHT22;10018;51.230;7.860;2023-06-10T02:09:25;14.10;99.90
19734;DHT22;10018;51.230;7.860;2023-06-10T02:11:50;14.10;99.90
19734;DHT22;10018;51.230;7.860;2023-06-10T02:14:16;14.10;99.90
19734;DHT22;10018;51.230;7.860;2023-06-10T02:16:41;14.10;99.90
19734;DHT22;10018;51.230;7.860;2023-06-10T02:19:12;14.00;99.90
19734;DHT22;10018;51.230;7.860;2023-06-10T02:21:38;14.00;99.90
19734;DHT22;10018;51.230;7.860;2023-06-10T02:24:04;14.00;99.90
19734;DHT22;10018;51.230;7.860;2023-06-10T02:26:30;13.90;99.90
19734;DHT22;10018;51.230;7.860;2023-06-10T02:28:55;13.90;99.90
19734;DHT22;10018;51.230;7.860;2023-06-10T02:31:21;13.90;99.90
19734;DHT22;10018;51.230;7.860;2023-06-10T02:33:47;13.90;99.90
19734;DHT22;10018;51.230;7.860;2023-06-10T02:36:14;13.80;99.90
19734;DHT22;10018;51.230;7.860;2023-06-10T02:38:41;13.80;99.90
19734;DHT22;10018;51.230;7.860;2023-06-10T02:41:07;13.80;99.90
19734;DHT22;10018;51.230;7.860;2023-06-10T02:43:35;13.80;99.90
19734;DHT22;10018;51.230;7.860;2023-06-10T02:46:00;13.70;99.90
19734;DHT22;10018;51.230;7.860;2023-06-10T02:48:27;13.60;99.90
19734;DHT22;10018;51.230;7.860;2023-06-10T02:50:53;13.60;99.90
19734;DHT22;10018;51.230;7.860;2023-06-10T02:53:18;13.60;99.90
19734;DHT22;10018;51.230;7.860;2023-06-10T02:55:44;13.60;99.90
19734;DHT22;10018;51.230;7.860;2023-06-10T02:58:10;13.60;99.90
19734;DHT22;10018;51.230;7.860;2023-06-10T03:00:35;13.50;99.90
19734;DHT22;10018;51.230;7.860;2023-06-10T03:03:02;13.50;99.90
19734;DHT22;10018;51.230;7.860;2023-06-10T03:05:29;13.50;99.90
19734;DHT22;10018;51.230;7.860;2023-06-10T03:07:55;13.50;99.90
19734;DHT22;10018;51.230;7.860;2023-06-10T03:10:20;13.40;99.90
19734;DHT22;10018;51.230;7.860;2023-06-10T03:12:46;13.40;99.90
19734;DHT22;10018;51.230;7.860;2023-06-10T03:15:12;13.40;99.90
19734;DHT22;10018;51.230;7.860;2023-06-10T03:17:37;13.40;99.90
19734;DHT22;10018;51.230;7.860;2023-06-10T03:20:06;13.40;99.90
19734;DHT22;10018;51.230;7.860;2023-06-10T03:22:33;13.40;99.90
19734;DHT22;10018;51.230;7.860;2023-06-10T03:24:58;13.30;99.90
19734;DHT22;10018;51.230;7.860;2023-06-10T03:27:25;13.40;99.90
19734;DHT22;10018;51.230;7.860;2023-06-10T03:29:51;13.40;99.90
19734;DHT22;10018;51.230;7.860;2023-06-10T03:32:16;13.30;99.90
19734;DHT22;10018;51.230;7.860;2023-06-10T03:34:44;13.30;99.90
19734;DHT22;10018;51.230;7.860;2023-06-10T03:37:10;13.30;99.90
19734;DHT22;10018;51.230;7.860;2023-06-10T03:39:36;13.30;99.90
19734;DHT22;10018;51.230;7.860;2023-06-10T03:42:01;13.30;99.90
19734;DHT22;10018;51.230;7.860;2023-06-10T03:44:27;13.30;99.90
19734;DHT22;10018;51.230;7.860;2023-06-10T03:46:54;13.30;99.90
19734;DHT22;10018;51.230;7.860;2023-06-10T03:49:20;13.30;99.90
19734;DHT22;10018;51.230;7.860;2023-06-10T03:51:45;13.30;99.90
19734;DHT22;10018;51.230;7.860;2023-06-10T03:54:11;13.30;99.90
19734;DHT22;10018;51.230;7.860;2023-06-10T03:56:37;13.40;99.90
19734;DHT22;10018;51.230;7.860;2023-06-10T03:59:02;13.40;99.90
19734;DHT22;10018;51.230;7.860;2023-06-10T04:01:30;13.40;99.90
19734;DHT22;10018;51.230;7.860;2023-06-10T04:03:56;13.40;99.90
19734;DHT22;10018;51.230;7.860;2023-06-10T04:06:22;13.40;99.90
19734;DHT22;10018;51.230;7.860;2023-06-10T04:08:50;13.40;99.90
19734;DHT22;10018;51.230;7.860;2023-06-10T04:11:15;13.50;99.90
19734;DHT22;10018;51.230;7.860;2023-06-10T04:13:41;13.60;99.90
19734;DHT22;10018;51.230;7.860;2023-06-10T04:16:07;13.70;99.90
19734;DHT22;10018;51.230;7.860;2023-06-10T04:18:32;13.80;99.90
19734;DHT22;10018;51.230;7.860;2023-06-10T04:20:58;13.80;99.90
19734;DHT22;10018;51.230;7.860;2023-06-10T04:23:25;13.90;99.90
19734;DHT22;10018;51.230;7.860;2023-06-10T04:25:51;13.90;99.90
19734;DHT22;10018;51.230;7.860;2023-06-10T04:28:17;14.00;99.90
19734;DHT22;10018;51.230;7.860;2023-06-10T04:30:45;14.00;99.90
19734;DHT22;10018;51.230;7.860;2023-06-10T04:33:11;14.10;99.90
19734;DHT22;10018;51.230;7.860;2023-06-10T04:35:36;14.20;99.90
19734;DHT22;10018;51.230;7.860;2023-06-10T04:38:04;14.30;99.90
19734;DHT22;10018;51.230;7.860;2023-06-10T04:40:30;14.40;99.90
19734;DHT22;10018;51.230;7.860;2023-06-10T04:42:56;14.60;99.90
19734;DHT22;10018;51.230;7.860;2023-06-10T04:45:21;14.80;99.90
19734;DHT22;10018;51.230;7.860;2023-06-10T04:47:47;14.90;99.90
19734;DHT22;10018;51.230;7.860;2023-06-10T04:50:13;15.00;99.90
19734;DHT22;10018;51.230;7.860;2023-06-10T04:52:38;15.10;99.90
19734;DHT22;10018;51.230;7.860;2023-06-10T04:55:07;15.20;99.90
19734;DHT22;10018;51.230;7.860;2023-06-10T04:57:32;15.40;99.90
19734;DHT22;10018;51.230;7.860;2023-06-10T04:59:58;15.50;99.90
19734;DHT22;10018;51.230;7.860;2023-06-10T05:02:24;15.60;99.90
19734;DHT22;10018;51.230;7.860;2023-06-10T05:04:49;15.70;99.90
19734;DHT22;10018;51.230;7.860;2023-06-10T05:07:15;15.80;99.90
19734;DHT22;10018;51.230;7.860;2023-06-10T05:09:41;16.00;99.90
19734;DHT22;10018;51.230;7.860;2023-06-10T05:12:07;16.10;99.90
19734;DHT22;10018;51.230;7.860;2023-06-10T05:14:32;16.30;99.90
19734;DHT22;10018;51.230;7.860;2023-06-10T05:16:58;16.20;99.90
19734;DHT22;10018;51.230;7.860;2023-06-10T05:19:24;16.30;99.90
19734;DHT22;10018;51.230;7.860;2023-06-10T05:21:49;16.40;99.90
19734;DHT22;10018;51.230;7.860;2023-06-10T05:24:17;16.70;99.90
19734;DHT22;10018;51.230;7.860;2023-06-10T05:26:45;16.90;99.90
19734;DHT22;10018;51.230;7.860;2023-06-10T05:29:11;17.00;99.90
19734;DHT22;10018;51.230;7.860;2023-06-10T05:31:36;17.20;99.90
19734;DHT22;10018;51.230;7.860;2023-06-10T05:34:02;17.40;99.90
19734;DHT22;10018;51.230;7.860;2023-06-10T05:36:30;17.50;99.90
19734;DHT22;10018;51.230;7.860;2023-06-10T05:38:56;17.70;99.90
19734;DHT22;10018;51.230;7.860;2023-06-10T05:41:21;17.80;99.90
19734;DHT22;10018;51.230;7.860;2023-06-10T05:43:47;17.80;99.90
19734;DHT22;10018;51.230;7.860;2023-06-10T05:46:13;18.00;99.90
19734;DHT22;10018;51.230;7.860;2023-06-10T05:48:38;18.20;99.90
19734;DHT22;10018;51.230;7.860;2023-06-10T05:51:04;18.20;99.90
19734;DHT22;10018;51.230;7.860;2023-06-10T05:53:29;18.40;99.90
19734;DHT22;10018;51.230;7.860;2023-06-10T05:55:58;18.50;99.90
19734;DHT22;10018;51.230;7.860;2023-06-10T05:58:24;18.60;99.90
19734;DHT22;10018;51.230;7.860;2023-06-10T06:00:49;18.70;99.90
19734;DHT22;10018;51.230;7.860;2023-06-10T06:03:18;18.80;99.90
19734;DHT22;10018;51.230;7.860;2023-06-10T06:05:49;19.00;99.90
19734;DHT22;10018;51.230;7.860;2023-06-10T06:08:15;19.10;99.90
19734;DHT22;10018;51.230;7.860;2023-06-10T06:10:44;19.30;99.90
19734;DHT22;10018;51.230;7.860;2023-06-10T06:13:12;19.40;99.90
19734;DHT22;10018;51.230;7.860;2023-06-10T06:15:50;19.50;99.90
19734;DHT22;10018;51.230;7.860;2023-06-10T06:18:19;19.60;99.90
19734;DHT22;10018;51.230;7.860;2023-06-10T06:20:50;19.80;99.90
19734;DHT22;10018;51.230;7.860;2023-06-10T06:23:20;20.00;99.90
19734;DHT22;10018;51.230;7.860;2023-06-10T06:25:45;20.10;99.90
19734;DHT22;10018;51.230;7.860;2023-06-10T06:28:11;20.10;99.90
19734;DHT22;10018;51.230;7.860;2023-06-10T06:30:37;20.40;99.90
19734;DHT22;10018;51.230;7.860;2023-06-10T06:33:02;20.60;99.90
19734;DHT22;10018;51.230;7.860;2023-06-10T06:35:32;20.70;99.90
19734;DHT22;10018;51.230;7.860;2023-06-10T06:38:05;20.60;99.90
19734;DHT22;10018;51.230;7.860;2023-06-10T06:40:33;20.70;99.90
19734;DHT22;10018;51.230;7.860;2023-06-10T06:43:07;20.80;99.90
19734;DHT22;10018;51.230;7.860;2023-06-10T06:45:42;20.90;99.90
19734;DHT22;10018;51.230;7.860;2023-06-10T06:48:18;20.90;99.90
19734;DHT22;10018;51.230;7.860;2023-06-10T06:50:46;21.10;99.90
19734;DHT22;10018;51.230;7.860;2023-06-10T06:53:12;21.40;99.90
19734;DHT22;10018;51.230;7.860;2023-06-10T06:55:41;21.70;99.90
19734;DHT22;10018;51.230;7.860;2023-06-10T06:58:14;21.90;99.90
19734;DHT22;10018;51.230;7.860;2023-06-10T07:00:48;21.70;99.90
19734;DHT22;10018;51.230;7.860;2023-06-10T07:03:34;21.80;99.90
19734;DHT22;10018;51.230;7.860;2023-06-10T07:06:16;22.00;99.90
19734;DHT22;10018;51.230;7.860;2023-06-10T07:08:44;22.30;99.90
19734;DHT22;10018;51.230;7.860;2023-06-10T07:11:23;22.40;99.90
19734;DHT22;10018;51.230;7.860;2023-06-10T07:13:59;22.50;99.90
19734;DHT22;10018;51.230;7.860;2023-06-10T07:16:28;22.60;99.90
19734;DHT22;10018;51.230;7.860;2023-06-10T07:19:03;22.70;99.90
19734;DHT22;10018;51.230;7.860;2023-06-10T07:21:37;22.90;99.90
19734;DHT22;10018;51.230;7.860;2023-06-10T07:24:06;23.00;99.90
19734;DHT22;10018;51.230;7.860;2023-06-10T07:26:32;23.30;99.90
19734;DHT22;10018;51.230;7.860;2023-06-10T07:28:57;23.30;99.90
19734;DHT22;10018;51.230;7.860;2023-06-10T07:31:29;23.40;99.90
19734;DHT22;10018;51.230;7.860;2023-06-10T07:34:08;23.40;99.90
19734;DHT22;10018;51.230;7.860;2023-06-10T07:36:44;23.40;99.90
19734;DHT22;10018;51.230;7.860;2023-06-10T07:39:25;23.50;99.90
19734;DHT22;10018;51.230;7.860;2023-06-10T07:41:53;23.60;99.90
19734;DHT22;10018;51.230;7.860;2023-06-10T07:44:29;23.70;99.90
19734;DHT22;10018;51.230;7.860;2023-06-10T07:46:57;23.90;99.90
19734;DHT22;10018;51.230;7.860;2023-06-10T07:49:26;24.00;99.90
19734;DHT22;10018;51.230;7.860;2023-06-10T07:52:03;24.00;99.90
19734;DHT22;10018;51.230;7.860;2023-06-10T07:54:33;24.20;99.90
19734;DHT22;10018;51.230;7.860;2023-06-10T07:57:10;24.40;99.90
19734;DHT22;10018;51.230;7.860;2023-06-10T07:59:36;24.60;99.90
19734;DHT22;10018;51.230;7.860;2023-06-10T08:02:08;24.70;99.90
19734;DHT22;10018;51.230;7.860;2023-06-10T08:04:36;24.70;99.90
19734;DHT22;10018;51.230;7.860;2023-06-10T08:07:02;24.70;99.90
19734;DHT22;10018;51.230;7.860;2023-06-10T08:09:28;24.80;99.90
19734;DHT22;10018;51.230;7.860;2023-06-10T08:11:54;24.90;99.90
19734;DHT22;10018;51.230;7.860;2023-06-10T08:14:23;25.00;99.90
19734;DHT22;10018;51.230;7.860;2023-06-10T08:16:55;25.20;99.90
19734;DHT22;10018;51.230;7.860;2023-06-10T08:19:23;25.40;99.90
19734;DHT22;10018;51.230;7.860;2023-06-10T08:21:57;25.40;99.90
19734;DHT22;10018;51.230;7.860;2023-06-10T08:24:29;25.60;99.90
19734;DHT22;10018;51.230;7.860;2023-06-10T08:26:57;25.80;99.90
19734;DHT22;10018;51.230;7.860;2023-06-10T08:29:28;26.00;99.90
19734;DHT22;10018;51.230;7.860;2023-06-10T08:31:56;26.20;99.90
19734;DHT22;10018;51.230;7.860;2023-06-10T08:36:58;26.40;99.90
19734;DHT22;10018;51.230;7.860;2023-06-10T08:39:24;26.30;99.90
19734;DHT22;10018;51.230;7.860;2023-06-10T08:44:42;26.50;99.90
19734;DHT22;10018;51.230;7.860;2023-06-10T08:47:30;26.70;99.90
19734;DHT22;10018;51.230;7.860;2023-06-10T08:50:10;26.90;99.90
19734;DHT22;10018;51.230;7.860;2023-06-10T08:52:37;27.00;99.90
19734;DHT22;10018;51.230;7.860;2023-06-10T08:55:18;27.20;99.90
19734;DHT22;10018;51.230;7.860;2023-06-10T08:57:48;27.40;99.90
19734;DHT22;10018;51.230;7.860;2023-06-10T09:00:19;27.20;99.90
19734;DHT22;10018;51.230;7.860;2023-06-10T09:02:50;27.40;99.90
19734;DHT22;10018;51.230;7.860;2023-06-10T09:05:18;27.50;99.90
19734;DHT22;10018;51.230;7.860;2023-06-10T09:07:46;27.40;99.90
19734;DHT22;10018;51.230;7.860;2023-06-10T09:10:15;27.30;99.90
19734;DHT22;10018;51.230;7.860;2023-06-10T09:12:44;27.00;99.90
19734;DHT22;10018;51.230;7.860;2023-06-10T09:15:10;27.10;99.90
19734;DHT22;10018;51.230;7.860;2023-06-10T09:17:38;27.20;99.90
19734;DHT22;10018;51.230;7.860;2023-06-10T09:20:07;27.20;99.90
19734;DHT22;10018;51.230;7.860;2023-06-10T09:22:33;27.00;99.90
19734;DHT22;10018;51.230;7.860;2023-06-10T09:25:17;26.80;99.90
19734;DHT22;10018;51.230;7.860;2023-06-10T09:27:51;26.90;99.90
19734;DHT22;10018;51.230;7.860;2023-06-10T09:30:29;27.20;99.90
19734;DHT22;10018;51.230;7.860;2023-06-10T09:32:55;27.30;99.90
19734;DHT22;10018;51.230;7.860;2023-06-10T09:35:25;26.90;99.90
19734;DHT22;10018;51.230;7.860;2023-06-10T09:37:52;26.70;99.90
19734;DHT22;10018;51.230;7.860;2023-06-10T09:40:18;26.70;99.90
19734;DHT22;10018;51.230;7.860;2023-06-10T09:42:44;26.60;99.90
19734;DHT22;10018;51.230;7.860;2023-06-10T09:45:10;26.40;99.90
19734;DHT22;10018;51.230;7.860;2023-06-10T09:47:35;26.40;99.90
19734;DHT22;10018;51.230;7.860;2023-06-10T09:50:01;26.30;99.90
19734;DHT22;10018;51.230;7.860;2023-06-10T09:52:28;26.30;99.90
19734;DHT22;10018;51.230;7.860;2023-06-10T09:55:02;26.20;99.90
19734;DHT22;10018;51.230;7.860;2023-06-10T09:57:32;26.20;99.90
19734;DHT22;10018;51.230;7.860;2023-06-10T09:59:58;26.00;99.90
19734;DHT22;10018;51.230;7.860;2023-06-10T10:02:24;26.00;99.90
19734;DHT22;10018;51.230;7.860;2023-06-10T10:04:50;25.90;99.90
19734;DHT22;10018;51.230;7.860;2023-06-10T10:07:18;25.90;99.90
19734;DHT22;10018;51.230;7.860;2023-06-10T10:09:43;25.80;99.90
19734;DHT22;10018;51.230;7.860;2023-06-10T10:12:11;25.90;99.90
19734;DHT22;10018;51.230;7.860;2023-06-10T10:14:38;25.90;99.90
19734;DHT22;10018;51.230;7.860;2023-06-10T10:17:10;26.00;99.90
19734;DHT22;10018;51.230;7.860;2023-06-10T10:19:43;26.20;99.90
19734;DHT22;10018;51.230;7.860;2023-06-10T10:22:20;26.20;99.90
19734;DHT22;10018;51.230;7.860;2023-06-10T10:24:52;26.10;99.90
19734;DHT22;10018;51.230;7.860;2023-06-10T10:27:22;26.00;99.90
19734;DHT22;10018;51.230;7.860;2023-06-10T10:29:52;26.00;99.90
19734;DHT22;10018;51.230;7.860;2023-06-10T10:32:21;26.10;99.90
19734;DHT22;10018;51.230;7.860;2023-06-10T10:34:53;26.10;99.90
19734;DHT22;10018;51.230;7.860;2023-06-10T10:37:20;26.20;99.90
19734;DHT22;10018;51.230;7.860;2023-06-10T10:39:47;26.30;99.90
19734;DHT22;10018;51.230;7.860;2023-06-10T10:42:13;26.60;99.90
19734;DHT22;10018;51.230;7.860;2023-06-10T10:44:40;26.70;99.90
19734;DHT22;10018;51.230;7.860;2023-06-10T10:47:08;26.70;99.90
19734;DHT22;10018;51.230;7.860;2023-06-10T10:49:35;26.70;99.90
19734;DHT22;10018;51.230;7.860;2023-06-10T10:52:03;26.70;99.90
19734;DHT22;10018;51.230;7.860;2023-06-10T10:54:32;26.70;99.90
19734;DHT22;10018;51.230;7.860;2023-06-10T10:57:16;26.70;99.90
19734;DHT22;10018;51.230;7.860;2023-06-10T10:59:55;26.80;99.90
19734;DHT22;10018;51.230;7.860;2023-06-10T11:02:42;27.00;99.90
19734;DHT22;10018;51.230;7.860;2023-06-10T11:05:15;27.40;99.90
19734;DHT22;10018;51.230;7.860;2023-06-10T11:07:55;27.90;99.90
19734;DHT22;10018;51.230;7.860;2023-06-10T11:12:56;28.10;99.90
19734;DHT22;10018;51.230;7.860;2023-06-10T11:15:24;28.10;99.90
19734;DHT22;10018;51.230;7.860;2023-06-10T11:18:10;28.00;99.90
19734;DHT22;10018;51.230;7.860;2023-06-10T11:20:57;28.00;99.90
19734;DHT22;10018;51.230;7.860;2023-06-10T11:28:39;28.50;99.90
19734;DHT22;10018;51.230;7.860;2023-06-10T11:31:04;28.50;99.90
19734;DHT22;10018;51.230;7.860;2023-06-10T11:33:31;28.40;99.90
19734;DHT22;10018;51.230;7.860;2023-06-10T11:35:57;28.40;99.90
19734;DHT22;10018;51.230;7.860;2023-06-10T11:38:24;28.50;99.90
19734;DHT22;10018;51.230;7.860;2023-06-10T11:40:50;28.80;99.90
19734;DHT22;10018;51.230;7.860;2023-06-10T11:43:19;29.10;99.90
19734;DHT22;10018;51.230;7.860;2023-06-10T11:45:45;29.30;99.90
19734;DHT22;10018;51.230;7.860;2023-06-10T11:48:13;29.10;99.90
19734;DHT22;10018;51.230;7.860;2023-06-10T11:50:39;28.70;99.90
19734;DHT22;10018;51.230;7.860;2023-06-10T11:53:08;28.70;99.90
19734;DHT22;10018;51.230;7.860;2023-06-10T11:55:47;28.90;99.90
19734;DHT22;10018;51.230;7.860;2023-06-10T11:58:17;29.30;99.90
19734;DHT22;10018;51.230;7.860;2023-06-10T12:00:55;29.40;99.90
19734;DHT22;10018;51.230;7.860;2023-06-10T12:03:26;29.50;99.90
19734;DHT22;10018;51.230;7.860;2023-06-10T12:05:56;29.60;99.90
19734;DHT22;10018;51.230;7.860;2023-06-10T12:08:23;29.70;99.90
19734;DHT22;10018;51.230;7.860;2023-06-10T12:10:49;30.10;99.90
19734;DHT22;10018;51.230;7.860;2023-06-10T12:13:15;30.10;99.90
19734;DHT22;10018;51.230;7.860;2023-06-10T12:15:43;30.00;99.90
19734;DHT22;10018;51.230;7.860;2023-06-10T12:18:19;29.90;99.90
19734;DHT22;10018;51.230;7.860;2023-06-10T12:20:46;29.70;99.90
19734;DHT22;10018;51.230;7.860;2023-06-10T12:23:12;29.30;99.90
19734;DHT22;10018;51.230;7.860;2023-06-10T12:25:38;28.90;99.90
19734;DHT22;10018;51.230;7.860;2023-06-10T12:28:05;28.80;99.90
19734;DHT22;10018;51.230;7.860;2023-06-10T12:30:33;29.20;99.90
19734;DHT22;10018;51.230;7.860;2023-06-10T12:32:58;29.60;99.90
19734;DHT22;10018;51.230;7.860;2023-06-10T12:35:26;29.80;99.90
19734;DHT22;10018;51.230;7.860;2023-06-10T12:38:03;30.00;99.90
19734;DHT22;10018;51.230;7.860;2023-06-10T12:40:37;30.00;99.90
19734;DHT22;10018;51.230;7.860;2023-06-10T12:43:05;30.00;99.90
19734;DHT22;10018;51.230;7.860;2023-06-10T12:45:36;30.10;99.90
19734;DHT22;10018;51.230;7.860;2023-06-10T12:48:24;29.80;99.90
19734;DHT22;10018;51.230;7.860;2023-06-10T12:50:55;29.40;99.90
19734;DHT22;10018;51.230;7.860;2023-06-10T12:53:21;29.10;99.90
19734;DHT22;10018;51.230;7.860;2023-06-10T12:55:51;28.70;99.90
19734;DHT22;10018;51.230;7.860;2023-06-10T12:58:20;28.90;99.90
19734;DHT22;10018;51.230;7.860;2023-06-10T13:00:46;29.30;99.90
19734;DHT22;10018;51.230;7.860;2023-06-10T13:03:14;29.60;99.90
19734;DHT22;10018;51.230;7.860;2023-06-10T13:05:39;30.00;99.90
19734;DHT22;10018;51.230;7.860;2023-06-10T13:08:08;30.30;99.90
19734;DHT22;10018;51.230;7.860;2023-06-10T13:10:37;30.50;99.90
19734;DHT22;10018;51.230;7.860;2023-06-10T13:13:03;30.80;99.90
19734;DHT22;10018;51.230;7.860;2023-06-10T13:15:33;30.80;99.90
19734;DHT22;10018;51.230;7.860;2023-06-10T13:18:05;30.60;99.90
19734;DHT22;10018;51.230;7.860;2023-06-10T13:20:30;30.50;99.90
19734;DHT22;10018;51.230;7.860;2023-06-10T13:22:56;30.60;99.90
19734;DHT22;10018;51.230;7.860;2023-06-10T13:25:22;30.80;99.90
19734;DHT22;10018;51.230;7.860;2023-06-10T13:27:48;30.60;99.90
19734;DHT22;10018;51.230;7.860;2023-06-10T13:30:16;30.60;99.90
19734;DHT22;10018;51.230;7.860;2023-06-10T13:32:44;30.50;99.90
19734;DHT22;10018;51.230;7.860;2023-06-10T13:35:12;30.30;99.90
19734;DHT22;10018;51.230;7.860;2023-06-10T13:37:38;30.40;99.90
19734;DHT22;10018;51.230;7.860;2023-06-10T13:40:04;30.20;99.90
19734;DHT22;10018;51.230;7.860;2023-06-10T13:42:29;30.30;99.90
19734;DHT22;10018;51.230;7.860;2023-06-10T13:44:55;30.50;99.90
19734;DHT22;10018;51.230;7.860;2023-06-10T13:47:22;30.70;99.90
19734;DHT22;10018;51.230;7.860;2023-06-10T13:49:49;30.90;99.70
19734;DHT22;10018;51.230;7.860;2023-06-10T13:52:15;30.90;99.60
19734;DHT22;10018;51.230;7.860;2023-06-10T13:54:40;31.10;99.90
19734;DHT22;10018;51.230;7.860;2023-06-10T13:57:06;31.20;99.90
19734;DHT22;10018;51.230;7.860;2023-06-10T13:59:32;30.80;99.70
19734;DHT22;10018;51.230;7.860;2023-06-10T14:01:58;30.30;99.90
19734;DHT22;10018;51.230;7.860;2023-06-10T14:04:24;29.90;99.90
19734;DHT22;10018;51.230;7.860;2023-06-10T14:06:49;29.50;99.90
19734;DHT22;10018;51.230;7.860;2023-06-10T14:09:15;29.20;99.90
19734;DHT22;10018;51.230;7.860;2023-06-10T14:11:44;29.10;99.90
19734;DHT22;10018;51.230;7.860;2023-06-10T14:14:13;28.90;99.90
19734;DHT22;10018;51.230;7.860;2023-06-10T14:16:39;28.70;99.90
19734;DHT22;10018;51.230;7.860;2023-06-10T14:19:07;28.60;99.90
19734;DHT22;10018;51.230;7.860;2023-06-10T14:21:33;28.60;99.90
19734;DHT22;10018;51.230;7.860;2023-06-10T14:24:01;28.60;99.90
19734;DHT22;10018;51.230;7.860;2023-06-10T14:26:26;28.70;99.90
19734;DHT22;10018;51.230;7.860;2023-06-10T14:28:52;29.00;99.90
19734;DHT22;10018;51.230;7.860;2023-06-10T14:31:17;29.20;99.90
19734;DHT22;10018;51.230;7.860;2023-06-10T14:33:43;29.20;99.90
19734;DHT22;10018;51.230;7.860;2023-06-10T14:36:10;29.20;99.90
19734;DHT22;10018;51.230;7.860;2023-06-10T14:38:35;29.30;99.90
19734;DHT22;10018;51.230;7.860;2023-06-10T14:41:01;29.40;99.90
19734;DHT22;10018;51.230;7.860;2023-06-10T14:43:27;29.60;99.90
19734;DHT22;10018;51.230;7.860;2023-06-10T14:45:53;29.80;99.90
19734;DHT22;10018;51.230;7.860;2023-06-10T14:48:20;30.10;99.90
19734;DHT22;10018;51.230;7.860;2023-06-10T14:50:46;30.40;99.90
19734;DHT22;10018;51.230;7.860;2023-06-10T14:53:18;30.20;99.90
19734;DHT22;10018;51.230;7.860;2023-06-10T14:55:46;30.50;99.90
19734;DHT22;10018;51.230;7.860;2023-06-10T14:58:12;30.30;99.90
19734;DHT22;10018;51.230;7.860;2023-06-10T15:00:37;30.10;99.90
19734;DHT22;10018;51.230;7.860;2023-06-10T15:03:03;29.70;99.90
19734;DHT22;10018;51.230;7.860;2023-06-10T15:05:29;29.40;99.90
19734;DHT22;10018;51.230;7.860;2023-06-10T15:07:54;29.20;99.90
19734;DHT22;10018;51.230;7.860;2023-06-10T15:10:22;29.00;99.90
19734;DHT22;10018;51.230;7.860;2023-06-10T15:12:48;28.90;99.90
19734;DHT22;10018;51.230;7.860;2023-06-10T15:15:24;28.70;99.90
19734;DHT22;10018;51.230;7.860;2023-06-10T15:17:50;28.60;99.90
19734;DHT22;10018;51.230;7.860;2023-06-10T15:20:16;28.60;99.90
19734;DHT22;10018;51.230;7.860;2023-06-10T15:22:42;28.80;99.90
19734;DHT22;10018;51.230;7.860;2023-06-10T15:25:07;29.00;99.90
19734;DHT22;10018;51.230;7.860;2023-06-10T15:27:33;29.00;99.90
19734;DHT22;10018;51.230;7.860;2023-06-10T15:29:59;28.80;99.90
19734;DHT22;10018;51.230;7.860;2023-06-10T15:32:24;29.00;99.90
19734;DHT22;10018;51.230;7.860;2023-06-10T15:34:50;29.10;99.90
19734;DHT22;10018;51.230;7.860;2023-06-10T15:37:18;29.10;99.90
19734;DHT22;10018;51.230;7.860;2023-06-10T15:39:44;29.40;99.90
19734;DHT22;10018;51.230;7.860;2023-06-10T15:42:09;29.50;99.90
19734;DHT22;10018;51.230;7.860;2023-06-10T15:44:35;29.60;99.90
19734;DHT22;10018;51.230;7.860;2023-06-10T15:47:01;29.60;99.90
19734;DHT22;10018;51.230;7.860;2023-06-10T15:49:26;29.60;99.90
19734;DHT22;10018;51.230;7.860;2023-06-10T15:51:52;29.70;99.90